TimeIST,TemperatureF,Dew PointF,Humidity,Sea Level PressureIn,VisibilityMPH,Wind Direction,Wind SpeedMPH,Gust SpeedMPH,PrecipitationIn,Events,Conditions,WindDirDegrees,DateUTC
1:00 AM,60.8,50.0,68,29.95,0.9,Calm,Calm,-,N/A,,Smoke,0,2013-11-25 19:30:00
2:00 AM,60.8,48.2,63,29.95,0.9,Calm,Calm,-,N/A,,Smoke,0,2013-11-25 20:30:00
2:30 AM,62,49,53,29.91,1,Calm,Calm,,,,Smoke,,2013-11-25 21:00:00
3:00 AM,59.0,46.4,63,29.95,0.9,West,3.5,-,N/A,,Smoke,260,2013-11-25 21:30:00
4:00 AM,59.0,46.4,63,29.95,0.9,Calm,Calm,-,N/A,,Smoke,0,2013-11-25 22:30:00
5:00 AM,57.2,46.4,67,29.95,0.9,Variable,1.2,-,N/A,,Smoke,0,2013-11-25 23:30:00
5:30 AM,72,58,51,29.86,1,East,4.6,,,,Smoke,90,2013-11-26 00:00:00
7:00 AM,64.4,42.8,45,29.98,1.1,NNW,4.6,-,N/A,,Smoke,330,2013-11-26 01:30:00
8:00 AM,68.0,42.8,40,29.98,1.2,Variable,5.8,-,N/A,,Smoke,0,2013-11-26 02:30:00
8:30 AM,68,60,67,29.94,1,NNW,2.3,,,,Smoke,340,2013-11-26 03:00:00
9:00 AM,-9999,-9999,N/A,-9999,1.2,Variable,3.5,-,N/A,,Smoke,0,2013-11-26 03:30:00
10:00 AM,78.8,44.6,30,30.01,1.6,Variable,5.8,-,N/A,,Haze,0,2013-11-26 04:30:00
11:30 AM,81,44,17,29.92,2,NW,6.9,,,,Haze,320,2013-11-26 06:00:00
11:30 AM,82.4,42.8,25,30.01,1.9,NNW,6.9,-,N/A,,Haze,330,2013-11-26 06:00:00
12:00 PM,82.4,41.0,23,29.98,1.9,Variable,8.1,-,N/A,,Haze,0,2013-11-26 06:30:00
12:30 PM,82.4,39.2,21,29.98,1.9,Variable,6.9,-,N/A,,Haze,0,2013-11-26 07:00:00
1:00 PM,84.2,41.0,22,29.95,1.9,Variable,6.9,-,N/A,,Haze,0,2013-11-26 07:30:00
2:00 PM,84.2,37.4,19,29.95,2.5,Variable,6.9,-,N/A,,Haze,0,2013-11-26 08:30:00
2:30 PM,85,43,14,29.86,1,WNW,6.9,,,,Haze,290,2013-11-26 09:00:00
3:00 PM,84.2,39.2,20,29.92,2.2,Variable,8.1,-,N/A,,Haze,0,2013-11-26 09:30:00
4:00 PM,84.2,37.4,19,29.89,2.2,NW,6.9,-,N/A,,Haze,320,2013-11-26 10:30:00
5:00 PM,82.4,37.4,20,29.92,2.2,NNW,4.6,-,N/A,,Haze,330,2013-11-26 11:30:00
5:30 PM,79,44,19,29.85,1,NNW,4.6,,,,Haze,340,2013-11-26 12:00:00
5:30 PM,80.6,39.2,23,29.92,2.2,NNW,4.6,-,N/A,,Haze,330,2013-11-26 12:00:00
6:30 PM,77.0,41.0,28,29.92,1.6,North,3.5,-,N/A,,Smoke,10,2013-11-26 13:00:00
7:00 PM,75.2,42.8,31,29.92,1.2,Calm,Calm,-,N/A,,Smoke,0,2013-11-26 13:30:00
8:00 PM,71.6,44.6,38,29.95,1.1,Calm,Calm,-,N/A,,Smoke,0,2013-11-26 14:30:00
8:30 PM,68,48,38,29.91,1,Calm,Calm,,,,Smoke,,2013-11-26 15:00:00
9:00 PM,64.4,46.4,52,29.98,1.2,Calm,Calm,-,N/A,,Smoke,0,2013-11-26 15:30:00
10:00 PM,66.2,46.4,49,29.98,1.2,Calm,Calm,-,N/A,,Smoke,0,2013-11-26 16:30:00
11:00 PM,64.4,48.2,56,29.98,1.2,Calm,Calm,-,N/A,,Smoke,0,2013-11-26 17:30:00
11:30 PM,64,47,43,29.94,1,Calm,Calm,,,,Smoke,,2013-11-26 18:00:00